Tahitian Princess — ZCDD8 — position and weather

sailwx.info

Track history (hours):
 
Tides and Currents Weather Stations Pressure Air Temp Water Temp Dewpoint Dewpoint Depression Visibility Wind Speed Wind Dir Waves Ship Positions

Tahitian Princess

Operator: P & O Irish Sea Ltd

Last reported at 2019-Jul-20 00:25 UTC. Time now 2019-Jul-20 00:52 UTC.
Position N 53°34' W 004°39'.

Length 167 m; draft 5.8 m.

Type: Passenger vessel. MMSI: 310362000.

Date/timePositionNaut miles runAvg speedWind from/ knotsBaromVisibWave heightAir tempDewpointWater temp
2019-Jul-20 00:25N 53°34' W 004°39'819.2
2019-Jul-20 00:00N 53°34' W 004°25'919.1
2019-Jul-19 23:30N 53°35' W 004°09'1019.0
2019-Jul-19 23:00N 53°34' W 003°53'918.9
2019-Jul-19 22:30N 53°33' W 003°37'918.9
2019-Jul-19 22:00N 53°33' W 003°22'816.5
2019-Jul-19 21:30N 53°32' W 003°08'612.1
2019-Jul-19 21:00N 53°27' W 003°01'0 0.1
2019-Jul-19 20:30N 53°27' W 003°01'0 0.8
2019-Jul-19 19:58N 53°27' W 003°01'0 0.0
2019-Jul-19 19:30N 53°27' W 003°01'0 0.0
2019-Jul-19 19:00N 53°27' W 003°01'0 0.0
2019-Jul-19 18:30N 53°27' W 003°01'0 0.0
2019-Jul-19 18:00N 53°27' W 003°01'0 0.0
2019-Jul-19 17:30N 53°27' W 003°01'0 0.0
2019-Jul-19 17:00N 53°27' W 003°01'0 0.0
2019-Jul-19 16:30N 53°27' W 003°01'0 0.0
2019-Jul-19 16:00N 53°27' W 003°01'0 0.7
2019-Jul-19 15:30N 53°27' W 003°01'0 0.4
2019-Jul-19 15:00N 53°27' W 003°01'5 9.2
2019-Jul-19 14:30N 53°30' W 003°06'816.3
2019-Jul-19 14:00N 53°31' W 003°20'918.2
2019-Jul-19 13:30N 53°31' W 003°35'918.3
2019-Jul-19 13:00N 53°32' W 003°50'918.7
2019-Jul-19 12:30N 53°34' W 004°06'5917.3
2019-Jul-19 09:05N 53°24' W 005°44'516.5
2019-Jul-19 08:46N 53°23' W 005°52'517.1
2019-Jul-19 08:29N 53°21' W 005°60'713.8
2019-Jul-19 08:00N 53°21' W 006°11'1 2.5
2019-Jul-19 07:30N 53°21' W 006°13'0 0.0
2019-Jul-19 07:00N 53°21' W 006°13'0 0.0
2019-Jul-19 06:30N 53°21' W 006°13'0 0.0
2019-Jul-19 06:00N 53°21' W 006°13'0 0.0
2019-Jul-19 05:30N 53°21' W 006°13'0 0.0
2019-Jul-19 05:00N 53°21' W 006°13'0 0.0
2019-Jul-19 04:30N 53°21' W 006°13'0 0.2
2019-Jul-19 03:56N 53°21' W 006°13'3 7.4
2019-Jul-19 03:30N 53°21' W 006°07'917.5
2019-Jul-19 03:00N 53°23' W 005°53'1018.1
2019-Jul-19 02:27N 53°25' W 005°37'4419.0
2019-Jul-19 00:08N 53°34' W 004°25'1420.1
2019-Jul-18 23:27N 53°33' W 004°01'919.4
2019-Jul-18 23:00N 53°34' W 003°47'918.8
2019-Jul-18 22:30N 53°33' W 003°31'918.3
2019-Jul-18 22:00N 53°32' W 003°16'714.7
2019-Jul-18 21:30N 53°29' W 003°05'3 5.4
2019-Jul-18 20:59N 53°27' W 003°01'0 0.4
2019-Jul-18 20:31N 53°27' W 003°01'0 0.5
2019-Jul-18 19:59N 53°27' W 003°01'0 0.0
2019-Jul-18 19:29N 53°27' W 003°01'0 0.0
2019-Jul-18 18:59N 53°27' W 003°01'0 0.0
2019-Jul-18 18:29N 53°27' W 003°01'0 0.0
2019-Jul-18 17:59N 53°27' W 003°01'0 0.0
2019-Jul-18 17:29N 53°27' W 003°01'0 0.0
2019-Jul-18 16:59N 53°27' W 003°01'0 0.0
2019-Jul-18 16:29N 53°27' W 003°01'0 0.0
2019-Jul-18 15:59N 53°27' W 003°01'0 0.9
2019-Jul-18 15:30N 53°27' W 003°01'0 0.2
2019-Jul-18 15:00N 53°27' W 003°01'510.3
2019-Jul-18 14:31N 53°31' W 003°07'816.8
2019-Jul-18 14:00N 53°31' W 003°21'918.5
2019-Jul-18 13:30N 53°31' W 003°36'918.6
2019-Jul-18 13:00N 53°32' W 003°52'919.0
2019-Jul-18 12:31N 53°34' W 004°08'6218.7
2019-Jul-18 09:11N 53°23' W 005°51'720.2
2019-Jul-18 08:52N 53°21' W 006°01'515.4
2019-Jul-18 08:30N 53°21' W 006°10'2 3.9
2019-Jul-18 08:00N 53°21' W 006°13'0 0.0
2019-Jul-18 07:30N 53°21' W 006°13'0 0.0
2019-Jul-18 07:00N 53°21' W 006°13'0 0.0
2019-Jul-18 06:30N 53°21' W 006°13'0 0.0
2019-Jul-18 06:00N 53°21' W 006°13'0 0.0
2019-Jul-18 05:30N 53°21' W 006°13'0 0.0
2019-Jul-18 05:00N 53°21' W 006°13'0 0.0
2019-Jul-18 04:30N 53°21' W 006°13'0 0.4
2019-Jul-18 04:00N 53°21' W 006°13'510.1
2019-Jul-18 03:31N 53°20' W 006°04'1018.6
2019-Jul-18 02:59N 53°23' W 005°49'6817.6
2019-Jul-17 23:09N 53°35' W 003°57'217.7
2019-Jul-17 23:01N 53°35' W 003°53'917.4
2019-Jul-17 22:30N 53°34' W 003°38'917.3
2019-Jul-17 22:01N 53°33' W 003°24'917.0
2019-Jul-17 21:31N 53°32' W 003°10'714.4
2019-Jul-17 21:01N 53°27' W 003°01'0 0.7
2019-Jul-17 20:30N 53°27' W 003°01'0 0.9
2019-Jul-17 20:00N 53°27' W 003°01'0 0.0
2019-Jul-17 19:30N 53°27' W 003°01'0 0.0
2019-Jul-17 19:00N 53°27' W 003°01'0 0.0
2019-Jul-17 18:30N 53°27' W 003°01'0 0.0
2019-Jul-17 18:00N 53°27' W 003°01'0 0.0
2019-Jul-17 17:30N 53°27' W 003°01'0 0.0
2019-Jul-17 17:00N 53°27' W 003°01'0 0.0
2019-Jul-17 16:30N 53°27' W 003°01'0 0.0
2019-Jul-17 16:00N 53°27' W 003°01'0 0.8
2019-Jul-17 15:30N 53°27' W 003°01'0 0.3
2019-Jul-17 15:00N 53°27' W 003°01'510.7
2019-Jul-17 14:31N 53°31' W 003°07'816.9
2019-Jul-17 14:01N 53°31' W 003°21'815.8
2019-Jul-17 13:30N 53°31' W 003°34'815.5
2019-Jul-17 13:00N 53°32' W 003°47'815.6
2019-Jul-17 12:31N 53°33' W 004°00'815.8
2019-Jul-17 12:00N 53°35' W 004°13'6017.6
2019-Jul-17 08:34N 53°23' W 005°53'219.8
2019-Jul-17 08:29N 53°22' W 005°55'816.9
2019-Jul-17 08:00N 53°21' W 006°09'3 5.0
2019-Jul-17 07:30N 53°21' W 006°13'0 0.0
2019-Jul-17 07:00N 53°21' W 006°13'0 0.0
2019-Jul-17 06:30N 53°21' W 006°13'0 0.0
2019-Jul-17 06:00N 53°21' W 006°13'0 0.0
2019-Jul-17 05:30N 53°21' W 006°13'0 0.0
2019-Jul-17 05:00N 53°21' W 006°13'0 0.0
2019-Jul-17 04:30N 53°21' W 006°13'0 0.1
2019-Jul-17 04:00N 53°21' W 006°13'4 8.6
2019-Jul-17 03:30N 53°20' W 006°06'918.5
2019-Jul-17 03:00N 53°23' W 005°51'5618.2
2019-Jul-16 23:56N 53°34' W 004°19'819.3
2019-Jul-16 23:30N 53°34' W 004°05'1118.6
2019-Jul-16 22:55N 53°34' W 003°47'717.9
2019-Jul-16 22:30N 53°33' W 003°34'917.8
2019-Jul-16 22:00N 53°32' W 003°20'816.7
2019-Jul-16 21:31N 53°30' W 003°06'4 7.5
2019-Jul-16 21:00N 53°27' W 003°02'1 1.5
2019-Jul-16 20:30N 53°27' W 003°01'0 0.9
2019-Jul-16 20:00N 53°27' W 003°01'0 0.0
2019-Jul-16 19:30N 53°27' W 003°01'0 0.0
2019-Jul-16 19:00N 53°27' W 003°01'0 0.0
2019-Jul-16 18:30N 53°27' W 003°01'0 0.0
2019-Jul-16 18:00N 53°27' W 003°01'0 0.0
2019-Jul-16 17:30N 53°27' W 003°01'0 0.0
2019-Jul-16 17:00N 53°27' W 003°01'0 0.0
2019-Jul-16 16:30N 53°27' W 003°01'0 0.0
2019-Jul-16 16:00N 53°27' W 003°01'0 0.8
2019-Jul-16 15:30N 53°27' W 003°01'0 0.3
2019-Jul-16 15:00N 53°27' W 003°01'612.0
2019-Jul-16 14:31N 53°31' W 003°08'816.6
2019-Jul-16 14:00N 53°31' W 003°22'815.9
2019-Jul-16 13:30N 53°31' W 003°35'815.6
2019-Jul-16 13:01N 53°32' W 003°48'815.8
2019-Jul-16 12:30N 53°33' W 004°01'815.5
2019-Jul-16 12:00N 53°35' W 004°14'5118.1
2019-Jul-16 09:11N 53°25' W 005°38'619.3
2019-Jul-16 08:51N 53°23' W 005°48'819.5
2019-Jul-16 08:28N 53°21' W 006°00'612.8
2019-Jul-16 08:00N 53°21' W 006°10'2 3.6
2019-Jul-16 07:30N 53°21' W 006°13'0 0.0
2019-Jul-16 07:00N 53°21' W 006°13'0 0.0
2019-Jul-16 06:30N 53°21' W 006°13'0 0.0
2019-Jul-16 06:00N 53°21' W 006°13'0 0.0
2019-Jul-16 05:30N 53°21' W 006°13'0 0.0
2019-Jul-16 05:00N 53°21' W 006°13'0 0.0
2019-Jul-16 04:30N 53°21' W 006°13'1 1.6
2019-Jul-16 04:00N 53°21' W 006°12'814.6
2019-Jul-16 03:26N 53°22' W 005°58'919.4
2019-Jul-16 02:57N 53°25' W 005°43'4520.0
2019-Jul-16 00:44N 53°34' W 004°30'521.1
2019-Jul-16 00:29N 53°35' W 004°21'1020.5
2019-Jul-16 00:00N 53°34' W 004°05'1019.8
2019-Jul-15 23:29N 53°34' W 003°48'919.1
2019-Jul-15 23:00N 53°34' W 003°32'918.8
2019-Jul-15 22:30N 53°32' W 003°17'816.0
2019-Jul-15 22:00N 53°29' W 003°04'3 6.3
2019-Jul-15 21:30N 53°26' W 003°01'0 0.3
2019-Jul-15 21:00N 53°27' W 003°01'0 0.0
2019-Jul-15 20:30N 53°27' W 003°01'1 1.7
2019-Jul-15 19:59N 53°27' W 003°01'0 0.2
2019-Jul-15 19:30N 53°27' W 003°01'0 0.0
2019-Jul-15 19:00N 53°27' W 003°01'0 0.0
2019-Jul-15 18:30N 53°27' W 003°01'0 0.0
2019-Jul-15 18:00N 53°27' W 003°01'0 0.0
2019-Jul-15 17:31N 53°27' W 003°01'0 0.0
2019-Jul-15 17:00N 53°27' W 003°01'0 0.0
2019-Jul-15 16:30N 53°27' W 003°01'0 0.0
2019-Jul-15 16:00N 53°27' W 003°01'0 0.0
2019-Jul-15 15:30N 53°27' W 003°01'0 0.0
2019-Jul-15 15:00N 53°27' W 003°01'0 0.0
2019-Jul-15 14:30N 53°27' W 003°01'0 0.0
2019-Jul-15 14:01N 53°27' W 003°01'0 0.0
2019-Jul-15 13:31N 53°27' W 003°01'0 0.0
2019-Jul-15 13:00N 53°27' W 003°01'0 0.0
2019-Jul-15 12:31N 53°27' W 003°01'0 0.0
2019-Jul-15 12:01N 53°27' W 003°01'0 0.0
2019-Jul-15 11:30N 53°27' W 003°01'0 0.0
2019-Jul-15 11:01N 53°27' W 003°01'0 0.0
2019-Jul-15 10:30N 53°27' W 003°01'0 0.0
2019-Jul-15 10:00N 53°27' W 003°01'0 0.0
2019-Jul-15 09:31N 53°27' W 003°01'0 0.0
2019-Jul-15 09:00N 53°27' W 003°01'0 0.0
2019-Jul-15 08:31N 53°27' W 003°01'0 0.0
2019-Jul-15 08:01N 53°27' W 003°01'0 0.0
2019-Jul-15 07:31N 53°27' W 003°01'0 0.0
2019-Jul-15 07:00N 53°27' W 003°01'0 0.0
2019-Jul-15 06:31N 53°27' W 003°01'0 0.0
2019-Jul-15 06:00N 53°27' W 003°01'0 0.0
2019-Jul-15 05:31N 53°27' W 003°01'0 0.0
2019-Jul-15 05:00N 53°27' W 003°01'0 0.4
2019-Jul-15 04:30N 53°27' W 003°01'0 0.5
2019-Jul-15 04:01N 53°27' W 003°01'4 8.0
2019-Jul-15 03:30N 53°30' W 003°06'713.8
2019-Jul-15 03:00N 53°31' W 003°17'816.4
2019-Jul-15 02:30N 53°31' W 003°31'815.1
2019-Jul-15 02:00N 53°31' W 003°44'815.0
2019-Jul-15 01:30N 53°32' W 003°56'714.7
2019-Jul-15 01:00N 53°33' W 004°08'814.3
2019-Jul-15 00:29N 53°34' W 004°21'712.7
2019-Jul-14 23:56N 53°36' W 004°32'1212.4
2019-Jul-14 22:59N 53°34' W 004°51'4316.5
2019-Jul-14 20:22N 53°21' W 006°01'514.5
2019-Jul-14 20:00N 53°21' W 006°09'2 4.4
2019-Jul-14 19:30N 53°21' W 006°13'0 0.0
2019-Jul-14 19:00N 53°21' W 006°13'0 0.0
2019-Jul-14 18:30N 53°21' W 006°13'0 0.0
2019-Jul-14 18:00N 53°21' W 006°13'0 0.0
2019-Jul-14 17:30N 53°21' W 006°13'0 0.3
2019-Jul-14 17:00N 53°21' W 006°13'0 0.0
2019-Jul-14 16:30N 53°21' W 006°13'0 0.0
2019-Jul-14 16:00N 53°21' W 006°13'0 0.0
2019-Jul-14 15:30N 53°21' W 006°13'0 0.0
2019-Jul-14 15:00N 53°21' W 006°13'0 0.0
2019-Jul-14 14:30N 53°21' W 006°13'0 0.0
2019-Jul-14 14:00N 53°21' W 006°13'0 0.0
2019-Jul-14 13:30N 53°21' W 006°13'0 0.0
2019-Jul-14 13:00N 53°21' W 006°13'0 0.0
2019-Jul-14 12:30N 53°21' W 006°13'0 0.0
2019-Jul-14 12:00N 53°21' W 006°13'0 0.0
2019-Jul-14 11:30N 53°21' W 006°13'0 0.0
2019-Jul-14 11:00N 53°21' W 006°13'0 0.0
2019-Jul-14 10:30N 53°21' W 006°13'0 0.0
2019-Jul-14 10:00N 53°21' W 006°13'0 0.0
2019-Jul-14 09:30N 53°21' W 006°13'0 0.0
2019-Jul-14 09:00N 53°21' W 006°13'0 0.0
2019-Jul-14 08:30N 53°21' W 006°13'0 0.0
2019-Jul-14 08:00N 53°21' W 006°13'0 0.3
2019-Jul-14 07:30N 53°21' W 006°13'0 0.1
2019-Jul-14 07:00N 53°21' W 006°13'0 0.0
2019-Jul-14 06:30N 53°21' W 006°13'0 0.0
2019-Jul-14 06:00N 53°21' W 006°13'0 0.0
2019-Jul-14 05:30N 53°21' W 006°13'0 0.0
2019-Jul-14 05:00N 53°21' W 006°13'1 1.6
2019-Jul-14 04:30N 53°21' W 006°12'510.0
2019-Jul-14 04:00N 53°21' W 006°03'816.8
2019-Jul-14 03:30N 53°24' W 005°50'6117.2
2019-Jul-13 23:58N 53°33' W 004°09'817.0
2019-Jul-13 23:30N 53°33' W 003°56'816.5
2019-Jul-13 23:00N 53°33' W 003°42'815.8
2019-Jul-13 22:30N 53°33' W 003°29'815.4
2019-Jul-13 22:00N 53°32' W 003°17'816.3
2019-Jul-13 21:30N 53°28' W 003°04'2 4.5
2019-Jul-13 21:00N 53°27' W 003°01'0 0.9
2019-Jul-13 20:31N 53°27' W 003°01'0 0.0
2019-Jul-13 20:00N 53°27' W 003°01'0 0.0
2019-Jul-13 19:30N 53°27' W 003°01'0 0.0
2019-Jul-13 19:01N 53°27' W 003°01'0 0.0
2019-Jul-13 18:30N 53°27' W 003°01'0 0.0
2019-Jul-13 18:00N 53°27' W 003°01'0 0.0
2019-Jul-13 17:30N 53°27' W 003°01'0 0.0
2019-Jul-13 17:00N 53°27' W 003°01'0 0.0
2019-Jul-13 16:30N 53°27' W 003°01'0 0.0
2019-Jul-13 16:00N 53°27' W 003°01'0 0.8
2019-Jul-13 15:30N 53°27' W 003°01'0 0.2
2019-Jul-13 15:01N 53°27' W 003°01'510.6
2019-Jul-13 14:31N 53°31' W 003°07'816.2
2019-Jul-13 14:01N 53°31' W 003°20'815.8
2019-Jul-13 13:31N 53°31' W 003°34'715.0
2019-Jul-13 13:01N 53°32' W 003°46'714.5
2019-Jul-13 12:31N 53°33' W 003°58'7317.5
2019-Jul-13 08:19N 53°21' W 005°60'516.2
2019-Jul-13 08:01N 53°21' W 006°08'3 5.8
2019-Jul-13 07:30N 53°21' W 006°13'0 0.0
2019-Jul-13 07:00N 53°21' W 006°13'0 0.0
2019-Jul-13 06:30N 53°21' W 006°13'0 0.0
2019-Jul-13 06:00N 53°21' W 006°13'0 0.0
2019-Jul-13 05:30N 53°21' W 006°13'0 0.0
2019-Jul-13 05:00N 53°21' W 006°13'0 0.0
2019-Jul-13 04:31N 53°21' W 006°13'0 0.2
2019-Jul-13 04:01N 53°21' W 006°13'4 8.9
2019-Jul-13 03:30N 53°20' W 006°05'816.4
2019-Jul-13 03:00N 53°23' W 005°53'1115.4
2019-Jul-13 02:17N 53°26' W 005°34'5117.4
2019-Jul-12 23:21N 53°34' W 004°10'618.0
2019-Jul-12 23:00N 53°34' W 003°60'917.3
2019-Jul-12 22:30N 53°34' W 003°45'918.1
2019-Jul-12 22:00N 53°33' W 003°30'1019.1
2019-Jul-12 21:30N 53°31' W 003°14'816.2
2019-Jul-12 21:00N 53°27' W 003°02'1 1.4
2019-Jul-12 20:30N 53°27' W 003°01'0 0.9
2019-Jul-12 20:00N 53°27' W 003°01'0 0.0
2019-Jul-12 19:30N 53°27' W 003°01'0 0.0
2019-Jul-12 19:00N 53°27' W 003°01'0 0.0
2019-Jul-12 18:30N 53°27' W 003°01'0 0.0
2019-Jul-12 18:00N 53°27' W 003°01'0 0.0
2019-Jul-12 17:30N 53°27' W 003°01'0 0.0
2019-Jul-12 17:00N 53°27' W 003°01'0 0.0
2019-Jul-12 16:30N 53°27' W 003°01'0 0.0
2019-Jul-12 16:00N 53°27' W 003°01'0 0.9
2019-Jul-12 15:30N 53°27' W 003°01'0 0.0
2019-Jul-12 15:00N 53°27' W 003°01'510.0
2019-Jul-12 14:30N 53°31' W 003°07'816.3
2019-Jul-12 14:00N 53°31' W 003°20'816.3
2019-Jul-12 13:30N 53°31' W 003°34'815.9
2019-Jul-12 13:00N 53°32' W 003°47'816.0
2019-Jul-12 12:30N 53°33' W 004°01'7217.4
2019-Jul-12 08:22N 53°21' W 005°60'514.6
2019-Jul-12 08:00N 53°21' W 006°09'3 5.1
2019-Jul-12 07:30N 53°21' W 006°13'0 0.0
2019-Jul-12 07:00N 53°21' W 006°13'0 0.0
2019-Jul-12 06:30N 53°21' W 006°13'0 0.0
2019-Jul-12 06:00N 53°21' W 006°13'0 0.0
2019-Jul-12 05:30N 53°21' W 006°13'0 0.0
2019-Jul-12 05:00N 53°21' W 006°13'0 0.0
2019-Jul-12 04:30N 53°21' W 006°13'0 0.2
2019-Jul-12 04:00N 53°21' W 006°13'4 8.3
2019-Jul-12 03:30N 53°20' W 006°06'916.4
2019-Jul-12 02:57N 53°23' W 005°52'816.1
2019-Jul-12 02:26N 53°25' W 005°38'4616.6
2019-Jul-11 23:39N 53°35' W 004°22'317.6
2019-Jul-11 23:29N 53°35' W 004°17'917.8
2019-Jul-11 23:00N 53°34' W 004°03'917.4
2019-Jul-11 22:30N 53°34' W 003°48'917.2
2019-Jul-11 22:00N 53°33' W 003°34'1019.2
2019-Jul-11 21:30N 53°32' W 003°18'917.0
2019-Jul-11 21:00N 53°29' W 003°05'3 5.6
2019-Jul-11 20:30N 53°27' W 003°01'0 0.9
2019-Jul-11 20:00N 53°27' W 003°01'0 0.0
2019-Jul-11 19:28N 53°27' W 003°01'0 0.0
2019-Jul-11 18:58N 53°27' W 003°01'0 0.0
2019-Jul-11 18:28N 53°27' W 003°01'0 0.0
2019-Jul-11 17:58N 53°27' W 003°01'0 0.0
2019-Jul-11 17:28N 53°27' W 003°01'0 0.0
2019-Jul-11 16:58N 53°27' W 003°01'0 0.0
2019-Jul-11 16:28N 53°27' W 003°01'0 0.0
2019-Jul-11 15:58N 53°27' W 003°01'0 0.5
2019-Jul-11 15:30N 53°27' W 003°01'0 0.6
2019-Jul-11 15:01N 53°27' W 003°01'5 9.2
2019-Jul-11 14:30N 53°30' W 003°06'917.5
2019-Jul-11 14:00N 53°31' W 003°21'816.9
2019-Jul-11 13:31N 53°31' W 003°35'816.1
2019-Jul-11 13:00N 53°31' W 003°49'816.2
2019-Jul-11 12:30N 53°32' W 004°02'916.5
2019-Jul-11 11:58N 53°33' W 004°17'6217.4
2019-Jul-11 08:23N 53°21' W 006°00'614.9
2019-Jul-11 08:00N 53°21' W 006°10'2 4.3
2019-Jul-11 07:30N 53°21' W 006°13'0 0.0
2019-Jul-11 07:00N 53°21' W 006°13'0 0.0
2019-Jul-11 06:30N 53°21' W 006°13'0 0.0
2019-Jul-11 06:00N 53°21' W 006°13'0 0.0
2019-Jul-11 05:30N 53°21' W 006°13'0 0.0
2019-Jul-11 05:00N 53°21' W 006°13'0 0.0
2019-Jul-11 04:30N 53°21' W 006°13'0 0.5
2019-Jul-11 04:00N 53°21' W 006°13'5 9.3
2019-Jul-11 03:30N 53°20' W 006°05'917.5
2019-Jul-11 03:00N 53°23' W 005°51'5716.8
2019-Jul-10 23:37N 53°35' W 004°18'318.7
2019-Jul-10 23:28N 53°35' W 004°13'1019.1
2019-Jul-10 22:58N 53°35' W 003°57'919.1
2019-Jul-10 22:30N 53°34' W 003°42'919.1
2019-Jul-10 22:00N 53°33' W 003°26'918.7
2019-Jul-10 21:30N 53°32' W 003°11'714.8
2019-Jul-10 21:00N 53°27' W 003°01'0 0.1
2019-Jul-10 20:30N 53°27' W 003°01'0 0.9
2019-Jul-10 20:00N 53°27' W 003°01'0 0.0
2019-Jul-10 19:30N 53°27' W 003°01'0 0.0
2019-Jul-10 19:00N 53°27' W 003°01'0 0.0
2019-Jul-10 18:30N 53°27' W 003°01'0 0.0
2019-Jul-10 18:00N 53°27' W 003°01'0 0.0
2019-Jul-10 17:30N 53°27' W 003°01'0 0.0
2019-Jul-10 17:00N 53°27' W 003°01'0 0.0
2019-Jul-10 16:30N 53°27' W 003°01'0 0.0
2019-Jul-10 16:00N 53°27' W 003°01'0 0.7
2019-Jul-10 15:30N 53°27' W 003°01'0 0.2
2019-Jul-10 15:00N 53°27' W 003°01'4 8.2
2019-Jul-10 14:31N 53°30' W 003°06'917.2
2019-Jul-10 14:01N 53°31' W 003°20'918.6
2019-Jul-10 13:30N 53°32' W 003°36'917.8
2019-Jul-10 13:01N 53°32' W 003°51'917.6
2019-Jul-10 12:31N 53°34' W 004°05'6917.3
2019-Jul-10 08:31N 53°21' W 005°60'018.1
2019-Jul-10 08:29N 53°21' W 006°00'713.9
2019-Jul-10 08:01N 53°21' W 006°11'1 1.4
2019-Jul-10 07:18N 53°21' W 006°13'0 0.0
2019-Jul-10 06:48N 53°21' W 006°13'0 0.0
2019-Jul-10 06:15N 53°21' W 006°13'0 0.0
2019-Jul-10 05:42N 53°21' W 006°13'0 0.0
2019-Jul-10 05:30N 53°21' W 006°13'0 0.0
2019-Jul-10 05:00N 53°21' W 006°13'0 0.0
2019-Jul-10 04:30N 53°21' W 006°13'0 0.2
2019-Jul-10 04:00N 53°21' W 006°13'5 9.8
2019-Jul-10 03:30N 53°20' W 006°05'1019.5
2019-Jul-10 02:59N 53°24' W 005°49'  
Track history (hours):
 
Tides and Currents Weather Stations Pressure Air Temp Water Temp Dewpoint Dewpoint Depression Visibility Wind Speed Wind Dir Waves Ship Positions

Tahitian Princess

Operator: P & O Irish Sea Ltd

Last reported at 2019-Jul-20 00:25 UTC. Time now 2019-Jul-20 00:52 UTC.
Position N 53°34' W 004°39'.

Length 167 m; draft 5.8 m.

Type: Passenger vessel. MMSI: 310362000.

Date/timePositionNaut miles runAvg speedWind from/ knotsBaromVisibWave heightAir tempDewpointWater temp
2019-Jul-20 00:25N 53°34' W 004°39'819.2
2019-Jul-20 00:00N 53°34' W 004°25'919.1
2019-Jul-19 23:30N 53°35' W 004°09'1019.0
2019-Jul-19 23:00N 53°34' W 003°53'918.9
2019-Jul-19 22:30N 53°33' W 003°37'918.9
2019-Jul-19 22:00N 53°33' W 003°22'816.5
2019-Jul-19 21:30N 53°32' W 003°08'612.1
2019-Jul-19 21:00N 53°27' W 003°01'0 0.1
2019-Jul-19 20:30N 53°27' W 003°01'0 0.8
2019-Jul-19 19:58N 53°27' W 003°01'0 0.0
2019-Jul-19 19:30N 53°27' W 003°01'0 0.0
2019-Jul-19 19:00N 53°27' W 003°01'0 0.0
2019-Jul-19 18:30N 53°27' W 003°01'0 0.0
2019-Jul-19 18:00N 53°27' W 003°01'0 0.0
2019-Jul-19 17:30N 53°27' W 003°01'0 0.0
2019-Jul-19 17:00N 53°27' W 003°01'0 0.0
2019-Jul-19 16:30N 53°27' W 003°01'0 0.0
2019-Jul-19 16:00N 53°27' W 003°01'0 0.7
2019-Jul-19 15:30N 53°27' W 003°01'0 0.4
2019-Jul-19 15:00N 53°27' W 003°01'5 9.2
2019-Jul-19 14:30N 53°30' W 003°06'816.3
2019-Jul-19 14:00N 53°31' W 003°20'918.2
2019-Jul-19 13:30N 53°31' W 003°35'918.3
2019-Jul-19 13:00N 53°32' W 003°50'918.7
2019-Jul-19 12:30N 53°34' W 004°06'5917.3
2019-Jul-19 09:05N 53°24' W 005°44'516.5
2019-Jul-19 08:46N 53°23' W 005°52'517.1
2019-Jul-19 08:29N 53°21' W 005°60'713.8
2019-Jul-19 08:00N 53°21' W 006°11'1 2.5
2019-Jul-19 07:30N 53°21' W 006°13'0 0.0
2019-Jul-19 07:00N 53°21' W 006°13'0 0.0
2019-Jul-19 06:30N 53°21' W 006°13'0 0.0
2019-Jul-19 06:00N 53°21' W 006°13'0 0.0
2019-Jul-19 05:30N 53°21' W 006°13'0 0.0
2019-Jul-19 05:00N 53°21' W 006°13'0 0.0
2019-Jul-19 04:30N 53°21' W 006°13'0 0.2
2019-Jul-19 03:56N 53°21' W 006°13'3 7.4
2019-Jul-19 03:30N 53°21' W 006°07'917.5
2019-Jul-19 03:00N 53°23' W 005°53'1018.1
2019-Jul-19 02:27N 53°25' W 005°37'4419.0
2019-Jul-19 00:08N 53°34' W 004°25'1420.1
2019-Jul-18 23:27N 53°33' W 004°01'919.4
2019-Jul-18 23:00N 53°34' W 003°47'918.8
2019-Jul-18 22:30N 53°33' W 003°31'918.3
2019-Jul-18 22:00N 53°32' W 003°16'714.7
2019-Jul-18 21:30N 53°29' W 003°05'3 5.4
2019-Jul-18 20:59N 53°27' W 003°01'0 0.4
2019-Jul-18 20:31N 53°27' W 003°01'0 0.5
2019-Jul-18 19:59N 53°27' W 003°01'0 0.0
2019-Jul-18 19:29N 53°27' W 003°01'0 0.0
2019-Jul-18 18:59N 53°27' W 003°01'0 0.0
2019-Jul-18 18:29N 53°27' W 003°01'0 0.0
2019-Jul-18 17:59N 53°27' W 003°01'0 0.0
2019-Jul-18 17:29N 53°27' W 003°01'0 0.0
2019-Jul-18 16:59N 53°27' W 003°01'0 0.0
2019-Jul-18 16:29N 53°27' W 003°01'0 0.0
2019-Jul-18 15:59N 53°27' W 003°01'0 0.9
2019-Jul-18 15:30N 53°27' W 003°01'0 0.2
2019-Jul-18 15:00N 53°27' W 003°01'510.3
2019-Jul-18 14:31N 53°31' W 003°07'816.8
2019-Jul-18 14:00N 53°31' W 003°21'918.5
2019-Jul-18 13:30N 53°31' W 003°36'918.6
2019-Jul-18 13:00N 53°32' W 003°52'919.0
2019-Jul-18 12:31N 53°34' W 004°08'6218.7
2019-Jul-18 09:11N 53°23' W 005°51'720.2
2019-Jul-18 08:52N 53°21' W 006°01'515.4
2019-Jul-18 08:30N 53°21' W 006°10'2 3.9
2019-Jul-18 08:00N 53°21' W 006°13'0 0.0
2019-Jul-18 07:30N 53°21' W 006°13'0 0.0
2019-Jul-18 07:00N 53°21' W 006°13'0 0.0
2019-Jul-18 06:30N 53°21' W 006°13'0 0.0
2019-Jul-18 06:00N 53°21' W 006°13'0 0.0
2019-Jul-18 05:30N 53°21' W 006°13'0 0.0
2019-Jul-18 05:00N 53°21' W 006°13'0 0.0
2019-Jul-18 04:30N 53°21' W 006°13'0 0.4
2019-Jul-18 04:00N 53°21' W 006°13'510.1
2019-Jul-18 03:31N 53°20' W 006°04'1018.6
2019-Jul-18 02:59N 53°23' W 005°49'6817.6
2019-Jul-17 23:09N 53°35' W 003°57'217.7
2019-Jul-17 23:01N 53°35' W 003°53'917.4
2019-Jul-17 22:30N 53°34' W 003°38'917.3
2019-Jul-17 22:01N 53°33' W 003°24'917.0
2019-Jul-17 21:31N 53°32' W 003°10'714.4
2019-Jul-17 21:01N 53°27' W 003°01'0 0.7
2019-Jul-17 20:30N 53°27' W 003°01'0 0.9
2019-Jul-17 20:00N 53°27' W 003°01'0 0.0
2019-Jul-17 19:30N 53°27' W 003°01'0 0.0
2019-Jul-17 19:00N 53°27' W 003°01'0 0.0
2019-Jul-17 18:30N 53°27' W 003°01'0 0.0
2019-Jul-17 18:00N 53°27' W 003°01'0 0.0
2019-Jul-17 17:30N 53°27' W 003°01'0 0.0
2019-Jul-17 17:00N 53°27' W 003°01'0 0.0
2019-Jul-17 16:30N 53°27' W 003°01'0 0.0
2019-Jul-17 16:00N 53°27' W 003°01'0 0.8
2019-Jul-17 15:30N 53°27' W 003°01'0 0.3
2019-Jul-17 15:00N 53°27' W 003°01'510.7
2019-Jul-17 14:31N 53°31' W 003°07'816.9
2019-Jul-17 14:01N 53°31' W 003°21'815.8
2019-Jul-17 13:30N 53°31' W 003°34'815.5
2019-Jul-17 13:00N 53°32' W 003°47'815.6
2019-Jul-17 12:31N 53°33' W 004°00'815.8
2019-Jul-17 12:00N 53°35' W 004°13'6017.6
2019-Jul-17 08:34N 53°23' W 005°53'219.8
2019-Jul-17 08:29N 53°22' W 005°55'816.9
2019-Jul-17 08:00N 53°21' W 006°09'3 5.0
2019-Jul-17 07:30N 53°21' W 006°13'0 0.0
2019-Jul-17 07:00N 53°21' W 006°13'0 0.0
2019-Jul-17 06:30N 53°21' W 006°13'0 0.0
2019-Jul-17 06:00N 53°21' W 006°13'0 0.0
2019-Jul-17 05:30N 53°21' W 006°13'0 0.0
2019-Jul-17 05:00N 53°21' W 006°13'0 0.0
2019-Jul-17 04:30N 53°21' W 006°13'0 0.1
2019-Jul-17 04:00N 53°21' W 006°13'4 8.6
2019-Jul-17 03:30N 53°20' W 006°06'918.5
2019-Jul-17 03:00N 53°23' W 005°51'5618.2
2019-Jul-16 23:56N 53°34' W 004°19'819.3
2019-Jul-16 23:30N 53°34' W 004°05'1118.6
2019-Jul-16 22:55N 53°34' W 003°47'717.9
2019-Jul-16 22:30N 53°33' W 003°34'917.8
2019-Jul-16 22:00N 53°32' W 003°20'816.7
2019-Jul-16 21:31N 53°30' W 003°06'4 7.5
2019-Jul-16 21:00N 53°27' W 003°02'1 1.5
2019-Jul-16 20:30N 53°27' W 003°01'0 0.9
2019-Jul-16 20:00N 53°27' W 003°01'0 0.0
2019-Jul-16 19:30N 53°27' W 003°01'0 0.0
2019-Jul-16 19:00N 53°27' W 003°01'0 0.0
2019-Jul-16 18:30N 53°27' W 003°01'0 0.0
2019-Jul-16 18:00N 53°27' W 003°01'0 0.0
2019-Jul-16 17:30N 53°27' W 003°01'0 0.0
2019-Jul-16 17:00N 53°27' W 003°01'0 0.0
2019-Jul-16 16:30N 53°27' W 003°01'0 0.0
2019-Jul-16 16:00N 53°27' W 003°01'0 0.8
2019-Jul-16 15:30N 53°27' W 003°01'0 0.3
2019-Jul-16 15:00N 53°27' W 003°01'612.0
2019-Jul-16 14:31N 53°31' W 003°08'816.6
2019-Jul-16 14:00N 53°31' W 003°22'815.9
2019-Jul-16 13:30N 53°31' W 003°35'815.6
2019-Jul-16 13:01N 53°32' W 003°48'815.8
2019-Jul-16 12:30N 53°33' W 004°01'815.5
2019-Jul-16 12:00N 53°35' W 004°14'5118.1
2019-Jul-16 09:11N 53°25' W 005°38'619.3
2019-Jul-16 08:51N 53°23' W 005°48'819.5
2019-Jul-16 08:28N 53°21' W 006°00'612.8
2019-Jul-16 08:00N 53°21' W 006°10'2 3.6
2019-Jul-16 07:30N 53°21' W 006°13'0 0.0
2019-Jul-16 07:00N 53°21' W 006°13'0 0.0
2019-Jul-16 06:30N 53°21' W 006°13'0 0.0
2019-Jul-16 06:00N 53°21' W 006°13'0 0.0
2019-Jul-16 05:30N 53°21' W 006°13'0 0.0
2019-Jul-16 05:00N 53°21' W 006°13'0 0.0
2019-Jul-16 04:30N 53°21' W 006°13'1 1.6
2019-Jul-16 04:00N 53°21' W 006°12'814.6
2019-Jul-16 03:26N 53°22' W 005°58'919.4
2019-Jul-16 02:57N 53°25' W 005°43'4520.0
2019-Jul-16 00:44N 53°34' W 004°30'521.1
2019-Jul-16 00:29N 53°35' W 004°21'1020.5
2019-Jul-16 00:00N 53°34' W 004°05'1019.8
2019-Jul-15 23:29N 53°34' W 003°48'919.1
2019-Jul-15 23:00N 53°34' W 003°32'918.8
2019-Jul-15 22:30N 53°32' W 003°17'816.0
2019-Jul-15 22:00N 53°29' W 003°04'3 6.3
2019-Jul-15 21:30N 53°26' W 003°01'0 0.3
2019-Jul-15 21:00N 53°27' W 003°01'0 0.0
2019-Jul-15 20:30N 53°27' W 003°01'1 1.7
2019-Jul-15 19:59N 53°27' W 003°01'0 0.2
2019-Jul-15 19:30N 53°27' W 003°01'0 0.0
2019-Jul-15 19:00N 53°27' W 003°01'0 0.0
2019-Jul-15 18:30N 53°27' W 003°01'0 0.0
2019-Jul-15 18:00N 53°27' W 003°01'0 0.0
2019-Jul-15 17:31N 53°27' W 003°01'0 0.0
2019-Jul-15 17:00N 53°27' W 003°01'0 0.0
2019-Jul-15 16:30N 53°27' W 003°01'0 0.0
2019-Jul-15 16:00N 53°27' W 003°01'0 0.0
2019-Jul-15 15:30N 53°27' W 003°01'0 0.0
2019-Jul-15 15:00N 53°27' W 003°01'0 0.0
2019-Jul-15 14:30N 53°27' W 003°01'0 0.0
2019-Jul-15 14:01N 53°27' W 003°01'0 0.0
2019-Jul-15 13:31N 53°27' W 003°01'0 0.0
2019-Jul-15 13:00N 53°27' W 003°01'0 0.0
2019-Jul-15 12:31N 53°27' W 003°01'0 0.0
2019-Jul-15 12:01N 53°27' W 003°01'0 0.0
2019-Jul-15 11:30N 53°27' W 003°01'0 0.0
2019-Jul-15 11:01N 53°27' W 003°01'0 0.0
2019-Jul-15 10:30N 53°27' W 003°01'0 0.0
2019-Jul-15 10:00N 53°27' W 003°01'0 0.0
2019-Jul-15 09:31N 53°27' W 003°01'0 0.0
2019-Jul-15 09:00N 53°27' W 003°01'0 0.0
2019-Jul-15 08:31N 53°27' W 003°01'0 0.0
2019-Jul-15 08:01N 53°27' W 003°01'0 0.0
2019-Jul-15 07:31N 53°27' W 003°01'0 0.0
2019-Jul-15 07:00N 53°27' W 003°01'0 0.0
2019-Jul-15 06:31N 53°27' W 003°01'0 0.0
2019-Jul-15 06:00N 53°27' W 003°01'0 0.0
2019-Jul-15 05:31N 53°27' W 003°01'0 0.0
2019-Jul-15 05:00N 53°27' W 003°01'0 0.4
2019-Jul-15 04:30N 53°27' W 003°01'0 0.5
2019-Jul-15 04:01N 53°27' W 003°01'4 8.0
2019-Jul-15 03:30N 53°30' W 003°06'713.8
2019-Jul-15 03:00N 53°31' W 003°17'816.4
2019-Jul-15 02:30N 53°31' W 003°31'815.1
2019-Jul-15 02:00N 53°31' W 003°44'815.0
2019-Jul-15 01:30N 53°32' W 003°56'714.7
2019-Jul-15 01:00N 53°33' W 004°08'814.3
2019-Jul-15 00:29N 53°34' W 004°21'712.7
2019-Jul-14 23:56N 53°36' W 004°32'1212.4
2019-Jul-14 22:59N 53°34' W 004°51'4316.5
2019-Jul-14 20:22N 53°21' W 006°01'514.5
2019-Jul-14 20:00N 53°21' W 006°09'2 4.4
2019-Jul-14 19:30N 53°21' W 006°13'0 0.0
2019-Jul-14 19:00N 53°21' W 006°13'0 0.0
2019-Jul-14 18:30N 53°21' W 006°13'0 0.0
2019-Jul-14 18:00N 53°21' W 006°13'0 0.0
2019-Jul-14 17:30N 53°21' W 006°13'0 0.3
2019-Jul-14 17:00N 53°21' W 006°13'0 0.0
2019-Jul-14 16:30N 53°21' W 006°13'0 0.0
2019-Jul-14 16:00N 53°21' W 006°13'0 0.0
2019-Jul-14 15:30N 53°21' W 006°13'0 0.0
2019-Jul-14 15:00N 53°21' W 006°13'0 0.0
2019-Jul-14 14:30N 53°21' W 006°13'0 0.0
2019-Jul-14 14:00N 53°21' W 006°13'0 0.0
2019-Jul-14 13:30N 53°21' W 006°13'0 0.0
2019-Jul-14 13:00N 53°21' W 006°13'0 0.0
2019-Jul-14 12:30N 53°21' W 006°13'0 0.0
2019-Jul-14 12:00N 53°21' W 006°13'0 0.0
2019-Jul-14 11:30N 53°21' W 006°13'0 0.0
2019-Jul-14 11:00N 53°21' W 006°13'0 0.0
2019-Jul-14 10:30N 53°21' W 006°13'0 0.0
2019-Jul-14 10:00N 53°21' W 006°13'0 0.0
2019-Jul-14 09:30N 53°21' W 006°13'0 0.0
2019-Jul-14 09:00N 53°21' W 006°13'0 0.0
2019-Jul-14 08:30N 53°21' W 006°13'0 0.0
2019-Jul-14 08:00N 53°21' W 006°13'0 0.3
2019-Jul-14 07:30N 53°21' W 006°13'0 0.1
2019-Jul-14 07:00N 53°21' W 006°13'0 0.0
2019-Jul-14 06:30N 53°21' W 006°13'0 0.0
2019-Jul-14 06:00N 53°21' W 006°13'0 0.0
2019-Jul-14 05:30N 53°21' W 006°13'0 0.0
2019-Jul-14 05:00N 53°21' W 006°13'1 1.6
2019-Jul-14 04:30N 53°21' W 006°12'510.0
2019-Jul-14 04:00N 53°21' W 006°03'816.8
2019-Jul-14 03:30N 53°24' W 005°50'6117.2
2019-Jul-13 23:58N 53°33' W 004°09'817.0
2019-Jul-13 23:30N 53°33' W 003°56'816.5
2019-Jul-13 23:00N 53°33' W 003°42'815.8
2019-Jul-13 22:30N 53°33' W 003°29'815.4
2019-Jul-13 22:00N 53°32' W 003°17'816.3
2019-Jul-13 21:30N 53°28' W 003°04'2 4.5
2019-Jul-13 21:00N 53°27' W 003°01'0 0.9
2019-Jul-13 20:31N 53°27' W 003°01'0 0.0
2019-Jul-13 20:00N 53°27' W 003°01'0 0.0
2019-Jul-13 19:30N 53°27' W 003°01'0 0.0
2019-Jul-13 19:01N 53°27' W 003°01'0 0.0
2019-Jul-13 18:30N 53°27' W 003°01'0 0.0
2019-Jul-13 18:00N 53°27' W 003°01'0 0.0
2019-Jul-13 17:30N 53°27' W 003°01'0 0.0
2019-Jul-13 17:00N 53°27' W 003°01'0 0.0
2019-Jul-13 16:30N 53°27' W 003°01'0 0.0
2019-Jul-13 16:00N 53°27' W 003°01'0 0.8
2019-Jul-13 15:30N 53°27' W 003°01'0 0.2
2019-Jul-13 15:01N 53°27' W 003°01'510.6
2019-Jul-13 14:31N 53°31' W 003°07'816.2
2019-Jul-13 14:01N 53°31' W 003°20'815.8
2019-Jul-13 13:31N 53°31' W 003°34'715.0
2019-Jul-13 13:01N 53°32' W 003°46'714.5
2019-Jul-13 12:31N 53°33' W 003°58'7317.5
2019-Jul-13 08:19N 53°21' W 005°60'516.2
2019-Jul-13 08:01N 53°21' W 006°08'3 5.8
2019-Jul-13 07:30N 53°21' W 006°13'0 0.0
2019-Jul-13 07:00N 53°21' W 006°13'0 0.0
2019-Jul-13 06:30N 53°21' W 006°13'0 0.0
2019-Jul-13 06:00N 53°21' W 006°13'0 0.0
2019-Jul-13 05:30N 53°21' W 006°13'0 0.0
2019-Jul-13 05:00N 53°21' W 006°13'0 0.0
2019-Jul-13 04:31N 53°21' W 006°13'0 0.2
2019-Jul-13 04:01N 53°21' W 006°13'4 8.9
2019-Jul-13 03:30N 53°20' W 006°05'816.4
2019-Jul-13 03:00N 53°23' W 005°53'1115.4
2019-Jul-13 02:17N 53°26' W 005°34'5117.4
2019-Jul-12 23:21N 53°34' W 004°10'618.0
2019-Jul-12 23:00N 53°34' W 003°60'917.3
2019-Jul-12 22:30N 53°34' W 003°45'918.1
2019-Jul-12 22:00N 53°33' W 003°30'1019.1
2019-Jul-12 21:30N 53°31' W 003°14'816.2
2019-Jul-12 21:00N 53°27' W 003°02'1 1.4
2019-Jul-12 20:30N 53°27' W 003°01'0 0.9
2019-Jul-12 20:00N 53°27' W 003°01'0 0.0
2019-Jul-12 19:30N 53°27' W 003°01'0 0.0
2019-Jul-12 19:00N 53°27' W 003°01'0 0.0
2019-Jul-12 18:30N 53°27' W 003°01'0 0.0
2019-Jul-12 18:00N 53°27' W 003°01'0 0.0
2019-Jul-12 17:30N 53°27' W 003°01'0 0.0
2019-Jul-12 17:00N 53°27' W 003°01'0 0.0
2019-Jul-12 16:30N 53°27' W 003°01'0 0.0
2019-Jul-12 16:00N 53°27' W 003°01'0 0.9
2019-Jul-12 15:30N 53°27' W 003°01'0 0.0
2019-Jul-12 15:00N 53°27' W 003°01'510.0
2019-Jul-12 14:30N 53°31' W 003°07'816.3
2019-Jul-12 14:00N 53°31' W 003°20'816.3
2019-Jul-12 13:30N 53°31' W 003°34'815.9
2019-Jul-12 13:00N 53°32' W 003°47'816.0
2019-Jul-12 12:30N 53°33' W 004°01'7217.4
2019-Jul-12 08:22N 53°21' W 005°60'514.6
2019-Jul-12 08:00N 53°21' W 006°09'3 5.1
2019-Jul-12 07:30N 53°21' W 006°13'0 0.0
2019-Jul-12 07:00N 53°21' W 006°13'0 0.0
2019-Jul-12 06:30N 53°21' W 006°13'0 0.0
2019-Jul-12 06:00N 53°21' W 006°13'0 0.0
2019-Jul-12 05:30N 53°21' W 006°13'0 0.0
2019-Jul-12 05:00N 53°21' W 006°13'0 0.0
2019-Jul-12 04:30N 53°21' W 006°13'0 0.2
2019-Jul-12 04:00N 53°21' W 006°13'4 8.3
2019-Jul-12 03:30N 53°20' W 006°06'916.4
2019-Jul-12 02:57N 53°23' W 005°52'816.1
2019-Jul-12 02:26N 53°25' W 005°38'4616.6
2019-Jul-11 23:39N 53°35' W 004°22'317.6
2019-Jul-11 23:29N 53°35' W 004°17'917.8
2019-Jul-11 23:00N 53°34' W 004°03'917.4
2019-Jul-11 22:30N 53°34' W 003°48'917.2
2019-Jul-11 22:00N 53°33' W 003°34'1019.2
2019-Jul-11 21:30N 53°32' W 003°18'917.0
2019-Jul-11 21:00N 53°29' W 003°05'3 5.6
2019-Jul-11 20:30N 53°27' W 003°01'0 0.9
2019-Jul-11 20:00N 53°27' W 003°01'0 0.0
2019-Jul-11 19:28N 53°27' W 003°01'0 0.0
2019-Jul-11 18:58N 53°27' W 003°01'0 0.0
2019-Jul-11 18:28N 53°27' W 003°01'0 0.0
2019-Jul-11 17:58N 53°27' W 003°01'0 0.0
2019-Jul-11 17:28N 53°27' W 003°01'0 0.0
2019-Jul-11 16:58N 53°27' W 003°01'0 0.0
2019-Jul-11 16:28N 53°27' W 003°01'0 0.0
2019-Jul-11 15:58N 53°27' W 003°01'0 0.5
2019-Jul-11 15:30N 53°27' W 003°01'0 0.6
2019-Jul-11 15:01N 53°27' W 003°01'5 9.2
2019-Jul-11 14:30N 53°30' W 003°06'917.5
2019-Jul-11 14:00N 53°31' W 003°21'816.9
2019-Jul-11 13:31N 53°31' W 003°35'816.1
2019-Jul-11 13:00N 53°31' W 003°49'816.2
2019-Jul-11 12:30N 53°32' W 004°02'916.5
2019-Jul-11 11:58N 53°33' W 004°17'6217.4
2019-Jul-11 08:23N 53°21' W 006°00'614.9
2019-Jul-11 08:00N 53°21' W 006°10'2 4.3
2019-Jul-11 07:30N 53°21' W 006°13'0 0.0
2019-Jul-11 07:00N 53°21' W 006°13'0 0.0
2019-Jul-11 06:30N 53°21' W 006°13'0 0.0
2019-Jul-11 06:00N 53°21' W 006°13'0 0.0
2019-Jul-11 05:30N 53°21' W 006°13'0 0.0
2019-Jul-11 05:00N 53°21' W 006°13'0 0.0
2019-Jul-11 04:30N 53°21' W 006°13'0 0.5
2019-Jul-11 04:00N 53°21' W 006°13'5 9.3
2019-Jul-11 03:30N 53°20' W 006°05'917.5
2019-Jul-11 03:00N 53°23' W 005°51'5716.8
2019-Jul-10 23:37N 53°35' W 004°18'318.7
2019-Jul-10 23:28N 53°35' W 004°13'1019.1
2019-Jul-10 22:58N 53°35' W 003°57'919.1
2019-Jul-10 22:30N 53°34' W 003°42'919.1
2019-Jul-10 22:00N 53°33' W 003°26'918.7
2019-Jul-10 21:30N 53°32' W 003°11'714.8
2019-Jul-10 21:00N 53°27' W 003°01'0 0.1
2019-Jul-10 20:30N 53°27' W 003°01'0 0.9
2019-Jul-10 20:00N 53°27' W 003°01'0 0.0
2019-Jul-10 19:30N 53°27' W 003°01'0 0.0
2019-Jul-10 19:00N 53°27' W 003°01'0 0.0
2019-Jul-10 18:30N 53°27' W 003°01'0 0.0
2019-Jul-10 18:00N 53°27' W 003°01'0 0.0
2019-Jul-10 17:30N 53°27' W 003°01'0 0.0
2019-Jul-10 17:00N 53°27' W 003°01'0 0.0
2019-Jul-10 16:30N 53°27' W 003°01'0 0.0
2019-Jul-10 16:00N 53°27' W 003°01'0 0.7
2019-Jul-10 15:30N 53°27' W 003°01'0 0.2
2019-Jul-10 15:00N 53°27' W 003°01'4 8.2
2019-Jul-10 14:31N 53°30' W 003°06'917.2
2019-Jul-10 14:01N 53°31' W 003°20'918.6
2019-Jul-10 13:30N 53°32' W 003°36'917.8
2019-Jul-10 13:01N 53°32' W 003°51'917.6
2019-Jul-10 12:31N 53°34' W 004°05'6917.3
2019-Jul-10 08:31N 53°21' W 005°60'018.1
2019-Jul-10 08:29N 53°21' W 006°00'713.9
2019-Jul-10 08:01N 53°21' W 006°11'1 1.4
2019-Jul-10 07:18N 53°21' W 006°13'0 0.0
2019-Jul-10 06:48N 53°21' W 006°13'0 0.0
2019-Jul-10 06:15N 53°21' W 006°13'0 0.0
2019-Jul-10 05:42N 53°21' W 006°13'0 0.0
2019-Jul-10 05:30N 53°21' W 006°13'0 0.0
2019-Jul-10 05:00N 53°21' W 006°13'0 0.0
2019-Jul-10 04:30N 53°21' W 006°13'0 0.2
2019-Jul-10 04:00N 53°21' W 006°13'5 9.8
2019-Jul-10 03:30N 53°20' W 006°05'1019.5
2019-Jul-10 02:59N 53°24' W 005°49'  

Dump ship's entire track history